Airport ICAO


22:07 UTC

5°C

Clear skies


An affordable passengers' Moving Map for your aircraft. Made for the iPad and the iPhone
More information here

LFOB Tille


Beauvais FRANCE   VFR CAVOK


METAR LFOB 132200Z AUTO 09002KT CAVOK 05/04 Q1029 TEMPO 0800 FG 0h07min

TAF LFOB 131700Z 1318/1418 18006KT CAVOK BECMG 1320/1323 2000 BR TEMPO 1323/1403 0800 FG BECMG 1403/1406 OVC002 PROB40 1403/1412 0200 FG VV/// BECMG 1412/1415 6000 NSW BKN005 PROB30 1415/1418 NSC 5h07min





NOTAMS

OPEN